sensor_id;sensor_type;location;lat;lon;timestamp;P1;durP1;ratioP1;P2;durP2;ratioP2
13469;SDS011;6807;48.682;9.032;2023-08-24T00:01:17;5.90;;;5.32;;
13469;SDS011;6807;48.682;9.032;2023-08-24T00:03:44;5.68;;;5.07;;
13469;SDS011;6807;48.682;9.032;2023-08-24T00:06:12;7.03;;;5.10;;
13469;SDS011;6807;48.682;9.032;2023-08-24T00:08:39;7.53;;;5.00;;
13469;SDS011;6807;48.682;9.032;2023-08-24T00:11:06;5.35;;;4.70;;
13469;SDS011;6807;48.682;9.032;2023-08-24T00:13:35;7.20;;;4.90;;
13469;SDS011;6807;48.682;9.032;2023-08-24T00:16:02;6.47;;;5.50;;
13469;SDS011;6807;48.682;9.032;2023-08-24T00:18:29;5.43;;;4.82;;
13469;SDS011;6807;48.682;9.032;2023-08-24T00:20:56;6.53;;;5.25;;
13469;SDS011;6807;48.682;9.032;2023-08-24T00:23:23;6.85;;;5.50;;
13469;SDS011;6807;48.682;9.032;2023-08-24T00:25:51;6.82;;;4.88;;
13469;SDS011;6807;48.682;9.032;2023-08-24T00:28:18;6.30;;;5.70;;
13469;SDS011;6807;48.682;9.032;2023-08-24T00:30:46;5.85;;;5.35;;
13469;SDS011;6807;48.682;9.032;2023-08-24T00:33:13;5.95;;;5.15;;
13469;SDS011;6807;48.682;9.032;2023-08-24T00:35:40;9.25;;;5.03;;
13469;SDS011;6807;48.682;9.032;2023-08-24T00:38:06;7.63;;;5.70;;
13469;SDS011;6807;48.682;9.032;2023-08-24T00:40:33;6.95;;;5.68;;
13469;SDS011;6807;48.682;9.032;2023-08-24T00:43:00;7.43;;;5.70;;
13469;SDS011;6807;48.682;9.032;2023-08-24T00:45:27;5.68;;;5.15;;
13469;SDS011;6807;48.682;9.032;2023-08-24T00:47:57;8.23;;;5.63;;
13469;SDS011;6807;48.682;9.032;2023-08-24T00:50:24;6.25;;;5.10;;
13469;SDS011;6807;48.682;9.032;2023-08-24T00:52:51;6.25;;;5.65;;
13469;SDS011;6807;48.682;9.032;2023-08-24T00:55:19;8.13;;;5.78;;
13469;SDS011;6807;48.682;9.032;2023-08-24T00:57:47;9.00;;;5.93;;
13469;SDS011;6807;48.682;9.032;2023-08-24T01:00:14;8.25;;;5.50;;
13469;SDS011;6807;48.682;9.032;2023-08-24T01:02:41;6.55;;;5.50;;
13469;SDS011;6807;48.682;9.032;2023-08-24T01:05:10;7.05;;;5.80;;
13469;SDS011;6807;48.682;9.032;2023-08-24T01:07:38;7.68;;;5.55;;
13469;SDS011;6807;48.682;9.032;2023-08-24T01:10:06;16.63;;;7.07;;
13469;SDS011;6807;48.682;9.032;2023-08-24T01:12:38;6.97;;;5.75;;
13469;SDS011;6807;48.682;9.032;2023-08-24T01:15:18;9.50;;;5.80;;
13469;SDS011;6807;48.682;9.032;2023-08-24T01:17:49;11.65;;;5.95;;
13469;SDS011;6807;48.682;9.032;2023-08-24T01:20:18;6.50;;;5.75;;
13469;SDS011;6807;48.682;9.032;2023-08-24T01:22:47;6.10;;;5.63;;
13469;SDS011;6807;48.682;9.032;2023-08-24T01:25:21;8.10;;;6.25;;
13469;SDS011;6807;48.682;9.032;2023-08-24T01:28:02;7.80;;;6.05;;
13469;SDS011;6807;48.682;9.032;2023-08-24T01:30:32;9.23;;;6.15;;
13469;SDS011;6807;48.682;9.032;2023-08-24T01:33:02;7.30;;;6.45;;
13469;SDS011;6807;48.682;9.032;2023-08-24T01:35:29;7.10;;;6.40;;
13469;SDS011;6807;48.682;9.032;2023-08-24T01:37:57;7.07;;;6.43;;
13469;SDS011;6807;48.682;9.032;2023-08-24T01:40:30;8.40;;;6.28;;
13469;SDS011;6807;48.682;9.032;2023-08-24T01:43:04;8.30;;;6.50;;
13469;SDS011;6807;48.682;9.032;2023-08-24T01:45:33;7.03;;;6.20;;
13469;SDS011;6807;48.682;9.032;2023-08-24T01:48:01;6.80;;;6.20;;
13469;SDS011;6807;48.682;9.032;2023-08-24T01:50:29;8.73;;;6.68;;
13469;SDS011;6807;48.682;9.032;2023-08-24T01:52:57;6.43;;;5.82;;
13469;SDS011;6807;48.682;9.032;2023-08-24T01:55:24;6.85;;;6.25;;
13469;SDS011;6807;48.682;9.032;2023-08-24T01:57:52;8.23;;;6.53;;
13469;SDS011;6807;48.682;9.032;2023-08-24T02:00:22;8.52;;;6.13;;
13469;SDS011;6807;48.682;9.032;2023-08-24T02:02:49;9.52;;;6.00;;
13469;SDS011;6807;48.682;9.032;2023-08-24T02:05:16;10.38;;;6.90;;
13469;SDS011;6807;48.682;9.032;2023-08-24T02:07:43;7.25;;;6.55;;
13469;SDS011;6807;48.682;9.032;2023-08-24T02:10:11;6.95;;;5.80;;
13469;SDS011;6807;48.682;9.032;2023-08-24T02:12:37;8.70;;;6.47;;
13469;SDS011;6807;48.682;9.032;2023-08-24T02:15:05;7.47;;;6.78;;
13469;SDS011;6807;48.682;9.032;2023-08-24T02:17:34;6.65;;;6.05;;
13469;SDS011;6807;48.682;9.032;2023-08-24T02:20:01;6.68;;;5.90;;
13469;SDS011;6807;48.682;9.032;2023-08-24T02:22:30;8.15;;;6.95;;
13469;SDS011;6807;48.682;9.032;2023-08-24T02:24:57;8.45;;;6.43;;
13469;SDS011;6807;48.682;9.032;2023-08-24T02:27:24;7.57;;;6.68;;
13469;SDS011;6807;48.682;9.032;2023-08-24T02:29:51;7.07;;;6.43;;
13469;SDS011;6807;48.682;9.032;2023-08-24T02:32:18;9.43;;;6.70;;
13469;SDS011;6807;48.682;9.032;2023-08-24T02:34:46;7.20;;;6.50;;
13469;SDS011;6807;48.682;9.032;2023-08-24T02:37:13;8.45;;;7.05;;
13469;SDS011;6807;48.682;9.032;2023-08-24T02:39:40;7.25;;;5.97;;
13469;SDS011;6807;48.682;9.032;2023-08-24T02:42:07;6.95;;;5.97;;
13469;SDS011;6807;48.682;9.032;2023-08-24T02:44:34;7.10;;;6.40;;
13469;SDS011;6807;48.682;9.032;2023-08-24T02:47:01;7.53;;;6.05;;
13469;SDS011;6807;48.682;9.032;2023-08-24T02:49:27;7.38;;;6.68;;
13469;SDS011;6807;48.682;9.032;2023-08-24T02:51:56;9.20;;;6.97;;
13469;SDS011;6807;48.682;9.032;2023-08-24T02:54:23;10.35;;;7.00;;
13469;SDS011;6807;48.682;9.032;2023-08-24T02:56:50;7.30;;;6.65;;
13469;SDS011;6807;48.682;9.032;2023-08-24T02:59:17;7.60;;;6.25;;
13469;SDS011;6807;48.682;9.032;2023-08-24T03:01:44;8.82;;;7.20;;
13469;SDS011;6807;48.682;9.032;2023-08-24T03:04:11;8.38;;;6.78;;
13469;SDS011;6807;48.682;9.032;2023-08-24T03:06:37;9.68;;;7.53;;
13469;SDS011;6807;48.682;9.032;2023-08-24T03:09:06;8.57;;;6.90;;
13469;SDS011;6807;48.682;9.032;2023-08-24T03:11:33;9.18;;;7.68;;
13469;SDS011;6807;48.682;9.032;2023-08-24T03:14:00;7.93;;;6.40;;
13469;SDS011;6807;48.682;9.032;2023-08-24T03:16:27;10.70;;;7.30;;
13469;SDS011;6807;48.682;9.032;2023-08-24T03:18:54;7.20;;;6.53;;
13469;SDS011;6807;48.682;9.032;2023-08-24T03:21:21;11.88;;;6.78;;
13469;SDS011;6807;48.682;9.032;2023-08-24T03:23:48;9.32;;;7.15;;
13469;SDS011;6807;48.682;9.032;2023-08-24T03:26:16;7.40;;;6.70;;
13469;SDS011;6807;48.682;9.032;2023-08-24T03:28:45;7.70;;;7.00;;
13469;SDS011;6807;48.682;9.032;2023-08-24T03:31:12;8.10;;;7.30;;
13469;SDS011;6807;48.682;9.032;2023-08-24T03:33:39;7.40;;;6.65;;
13469;SDS011;6807;48.682;9.032;2023-08-24T03:36:06;8.05;;;6.93;;
13469;SDS011;6807;48.682;9.032;2023-08-24T03:38:33;7.15;;;6.55;;
13469;SDS011;6807;48.682;9.032;2023-08-24T03:41:00;9.27;;;7.07;;
13469;SDS011;6807;48.682;9.032;2023-08-24T03:43:30;7.68;;;6.97;;
13469;SDS011;6807;48.682;9.032;2023-08-24T03:45:59;7.88;;;7.07;;
13469;SDS011;6807;48.682;9.032;2023-08-24T03:48:26;7.18;;;5.97;;
13469;SDS011;6807;48.682;9.032;2023-08-24T03:50:53;10.60;;;6.53;;
13469;SDS011;6807;48.682;9.032;2023-08-24T03:53:20;7.68;;;6.68;;
13469;SDS011;6807;48.682;9.032;2023-08-24T03:55:47;10.00;;;7.00;;
13469;SDS011;6807;48.682;9.032;2023-08-24T03:58:15;10.45;;;6.72;;
13469;SDS011;6807;48.682;9.032;2023-08-24T04:00:43;6.68;;;6.07;;
13469;SDS011;6807;48.682;9.032;2023-08-24T04:03:11;7.80;;;7.00;;
13469;SDS011;6807;48.682;9.032;2023-08-24T04:05:38;7.63;;;6.53;;
13469;SDS011;6807;48.682;9.032;2023-08-24T04:08:05;7.30;;;6.60;;
13469;SDS011;6807;48.682;9.032;2023-08-24T04:10:33;8.27;;;6.75;;
13469;SDS011;6807;48.682;9.032;2023-08-24T04:13:01;7.53;;;6.82;;
13469;SDS011;6807;48.682;9.032;2023-08-24T04:15:28;6.50;;;5.90;;
13469;SDS011;6807;48.682;9.032;2023-08-24T04:17:56;7.63;;;6.55;;
13469;SDS011;6807;48.682;9.032;2023-08-24T04:20:23;7.95;;;7.00;;
13469;SDS011;6807;48.682;9.032;2023-08-24T04:22:50;6.53;;;5.95;;
13469;SDS011;6807;48.682;9.032;2023-08-24T04:25:17;6.80;;;6.25;;
13469;SDS011;6807;48.682;9.032;2023-08-24T04:27:44;7.68;;;6.65;;
13469;SDS011;6807;48.682;9.032;2023-08-24T04:30:11;7.55;;;6.50;;
13469;SDS011;6807;48.682;9.032;2023-08-24T04:32:39;9.02;;;6.88;;
13469;SDS011;6807;48.682;9.032;2023-08-24T04:35:08;7.72;;;6.95;;
13469;SDS011;6807;48.682;9.032;2023-08-24T04:37:35;9.05;;;6.78;;
13469;SDS011;6807;48.682;9.032;2023-08-24T04:40:02;9.25;;;6.43;;
13469;SDS011;6807;48.682;9.032;2023-08-24T04:42:32;8.48;;;6.32;;
13469;SDS011;6807;48.682;9.032;2023-08-24T04:44:59;9.57;;;6.75;;
13469;SDS011;6807;48.682;9.032;2023-08-24T04:47:26;7.60;;;6.30;;
13469;SDS011;6807;48.682;9.032;2023-08-24T04:49:53;7.28;;;6.57;;
13469;SDS011;6807;48.682;9.032;2023-08-24T04:52:22;8.13;;;6.90;;
13469;SDS011;6807;48.682;9.032;2023-08-24T04:54:48;11.57;;;6.70;;
13469;SDS011;6807;48.682;9.032;2023-08-24T04:57:16;9.27;;;6.40;;
13469;SDS011;6807;48.682;9.032;2023-08-24T04:59:43;7.30;;;6.63;;
13469;SDS011;6807;48.682;9.032;2023-08-24T05:02:10;8.55;;;6.90;;
13469;SDS011;6807;48.682;9.032;2023-08-24T05:04:37;9.13;;;8.23;;
13469;SDS011;6807;48.682;9.032;2023-08-24T05:07:04;6.60;;;5.90;;
13469;SDS011;6807;48.682;9.032;2023-08-24T05:09:32;6.55;;;6.05;;
13469;SDS011;6807;48.682;9.032;2023-08-24T05:11:59;8.15;;;6.40;;
13469;SDS011;6807;48.682;9.032;2023-08-24T05:14:26;7.18;;;6.47;;
13469;SDS011;6807;48.682;9.032;2023-08-24T05:16:53;7.38;;;6.65;;
13469;SDS011;6807;48.682;9.032;2023-08-24T05:19:20;9.38;;;6.40;;
13469;SDS011;6807;48.682;9.032;2023-08-24T05:21:47;7.78;;;5.80;;
13469;SDS011;6807;48.682;9.032;2023-08-24T05:24:14;7.80;;;6.47;;
13469;SDS011;6807;48.682;9.032;2023-08-24T05:26:42;7.85;;;6.35;;
13469;SDS011;6807;48.682;9.032;2023-08-24T05:29:09;7.32;;;6.13;;
13469;SDS011;6807;48.682;9.032;2023-08-24T05:31:36;10.27;;;6.40;;
13469;SDS011;6807;48.682;9.032;2023-08-24T05:34:02;8.15;;;5.95;;
13469;SDS011;6807;48.682;9.032;2023-08-24T05:36:29;12.25;;;6.57;;
13469;SDS011;6807;48.682;9.032;2023-08-24T05:38:56;7.55;;;6.15;;
13469;SDS011;6807;48.682;9.032;2023-08-24T05:41:23;8.55;;;6.82;;
13469;SDS011;6807;48.682;9.032;2023-08-24T05:43:51;7.00;;;6.30;;
13469;SDS011;6807;48.682;9.032;2023-08-24T05:46:18;6.70;;;6.07;;
13469;SDS011;6807;48.682;9.032;2023-08-24T05:48:45;7.63;;;6.72;;
13469;SDS011;6807;48.682;9.032;2023-08-24T05:51:12;9.60;;;6.35;;
13469;SDS011;6807;48.682;9.032;2023-08-24T05:53:40;11.40;;;6.10;;
13469;SDS011;6807;48.682;9.032;2023-08-24T05:56:07;10.68;;;6.28;;
13469;SDS011;6807;48.682;9.032;2023-08-24T05:58:33;8.70;;;5.65;;
13469;SDS011;6807;48.682;9.032;2023-08-24T06:01:02;7.70;;;5.72;;
13469;SDS011;6807;48.682;9.032;2023-08-24T06:03:29;6.90;;;5.65;;
13469;SDS011;6807;48.682;9.032;2023-08-24T06:06:00;8.55;;;6.25;;
13469;SDS011;6807;48.682;9.032;2023-08-24T06:08:29;9.88;;;6.32;;
13469;SDS011;6807;48.682;9.032;2023-08-24T06:10:56;8.60;;;5.20;;
13469;SDS011;6807;48.682;9.032;2023-08-24T06:13:24;8.65;;;5.50;;
13469;SDS011;6807;48.682;9.032;2023-08-24T06:15:51;6.55;;;5.85;;
13469;SDS011;6807;48.682;9.032;2023-08-24T06:18:20;7.60;;;5.60;;
13469;SDS011;6807;48.682;9.032;2023-08-24T06:20:47;7.05;;;5.63;;
13469;SDS011;6807;48.682;9.032;2023-08-24T06:23:15;8.73;;;5.63;;
13469;SDS011;6807;48.682;9.032;2023-08-24T06:25:43;8.52;;;6.30;;
13469;SDS011;6807;48.682;9.032;2023-08-24T06:28:10;7.35;;;5.78;;
13469;SDS011;6807;48.682;9.032;2023-08-24T06:30:37;6.43;;;5.70;;
13469;SDS011;6807;48.682;9.032;2023-08-24T06:33:04;7.45;;;5.70;;
13469;SDS011;6807;48.682;9.032;2023-08-24T06:35:34;7.65;;;5.85;;
13469;SDS011;6807;48.682;9.032;2023-08-24T06:38:01;9.15;;;5.13;;
13469;SDS011;6807;48.682;9.032;2023-08-24T06:40:29;5.65;;;4.75;;
13469;SDS011;6807;48.682;9.032;2023-08-24T06:42:56;7.70;;;5.05;;
13469;SDS011;6807;48.682;9.032;2023-08-24T06:45:23;8.38;;;6.15;;
13469;SDS011;6807;48.682;9.032;2023-08-24T06:47:50;7.93;;;5.38;;
13469;SDS011;6807;48.682;9.032;2023-08-24T06:50:17;6.65;;;5.95;;
13469;SDS011;6807;48.682;9.032;2023-08-24T06:52:46;13.30;;;5.95;;
13469;SDS011;6807;48.682;9.032;2023-08-24T06:55:13;15.52;;;6.47;;
13469;SDS011;6807;48.682;9.032;2023-08-24T06:57:41;9.48;;;6.53;;
13469;SDS011;6807;48.682;9.032;2023-08-24T07:00:08;12.45;;;6.68;;
13469;SDS011;6807;48.682;9.032;2023-08-24T07:02:39;8.93;;;6.20;;
13469;SDS011;6807;48.682;9.032;2023-08-24T07:05:07;11.00;;;7.32;;
13469;SDS011;6807;48.682;9.032;2023-08-24T07:07:34;8.98;;;6.38;;
13469;SDS011;6807;48.682;9.032;2023-08-24T07:10:03;9.85;;;6.35;;
13469;SDS011;6807;48.682;9.032;2023-08-24T07:12:31;8.73;;;6.80;;
13469;SDS011;6807;48.682;9.032;2023-08-24T07:14:58;8.30;;;6.20;;
13469;SDS011;6807;48.682;9.032;2023-08-24T07:17:25;9.90;;;6.45;;
13469;SDS011;6807;48.682;9.032;2023-08-24T07:19:52;11.57;;;6.15;;
13469;SDS011;6807;48.682;9.032;2023-08-24T07:22:19;7.78;;;5.18;;
13469;SDS011;6807;48.682;9.032;2023-08-24T07:24:46;10.38;;;6.15;;
13469;SDS011;6807;48.682;9.032;2023-08-24T07:27:18;6.53;;;5.60;;
13469;SDS011;6807;48.682;9.032;2023-08-24T07:29:46;10.35;;;5.80;;
13469;SDS011;6807;48.682;9.032;2023-08-24T07:32:13;9.02;;;5.28;;
13469;SDS011;6807;48.682;9.032;2023-08-24T07:34:40;7.15;;;4.80;;
13469;SDS011;6807;48.682;9.032;2023-08-24T07:37:06;8.00;;;4.57;;
13469;SDS011;6807;48.682;9.032;2023-08-24T07:39:33;8.85;;;4.85;;
13469;SDS011;6807;48.682;9.032;2023-08-24T07:42:00;8.05;;;4.78;;
13469;SDS011;6807;48.682;9.032;2023-08-24T07:44:29;6.18;;;4.15;;
13469;SDS011;6807;48.682;9.032;2023-08-24T07:46:56;5.25;;;3.95;;
13469;SDS011;6807;48.682;9.032;2023-08-24T07:49:23;6.40;;;3.72;;
13469;SDS011;6807;48.682;9.032;2023-08-24T07:51:50;6.13;;;3.33;;
13469;SDS011;6807;48.682;9.032;2023-08-24T07:54:16;5.68;;;3.38;;
13469;SDS011;6807;48.682;9.032;2023-08-24T07:56:43;8.15;;;3.58;;
13469;SDS011;6807;48.682;9.032;2023-08-24T07:59:11;6.45;;;3.72;;
13469;SDS011;6807;48.682;9.032;2023-08-24T08:01:39;5.60;;;3.55;;
13469;SDS011;6807;48.682;9.032;2023-08-24T08:04:06;5.82;;;3.53;;
13469;SDS011;6807;48.682;9.032;2023-08-24T08:06:32;5.38;;;3.42;;
13469;SDS011;6807;48.682;9.032;2023-08-24T08:08:59;6.47;;;3.38;;
13469;SDS011;6807;48.682;9.032;2023-08-24T08:11:26;3.88;;;3.38;;
13469;SDS011;6807;48.682;9.032;2023-08-24T08:13:53;3.90;;;3.40;;
13469;SDS011;6807;48.682;9.032;2023-08-24T08:16:20;6.47;;;3.38;;
13469;SDS011;6807;48.682;9.032;2023-08-24T08:18:49;3.53;;;2.90;;
13469;SDS011;6807;48.682;9.032;2023-08-24T08:21:16;6.28;;;3.30;;
13469;SDS011;6807;48.682;9.032;2023-08-24T08:23:44;7.47;;;3.50;;
13469;SDS011;6807;48.682;9.032;2023-08-24T08:26:11;5.32;;;3.60;;
13469;SDS011;6807;48.682;9.032;2023-08-24T08:28:39;4.95;;;3.53;;
13469;SDS011;6807;48.682;9.032;2023-08-24T08:31:06;4.82;;;3.35;;
13469;SDS011;6807;48.682;9.032;2023-08-24T08:33:33;4.30;;;3.22;;
13469;SDS011;6807;48.682;9.032;2023-08-24T08:36:02;6.93;;;3.45;;
13469;SDS011;6807;48.682;9.032;2023-08-24T08:38:29;5.65;;;3.35;;
13469;SDS011;6807;48.682;9.032;2023-08-24T08:40:56;7.93;;;3.38;;
13469;SDS011;6807;48.682;9.032;2023-08-24T08:43:29;3.92;;;3.40;;
13469;SDS011;6807;48.682;9.032;2023-08-24T08:45:56;4.95;;;3.15;;
13469;SDS011;6807;48.682;9.032;2023-08-24T08:48:25;3.20;;;3.00;;
13469;SDS011;6807;48.682;9.032;2023-08-24T08:50:54;6.65;;;3.70;;
13469;SDS011;6807;48.682;9.032;2023-08-24T08:53:23;3.67;;;3.35;;
13469;SDS011;6807;48.682;9.032;2023-08-24T08:55:51;5.20;;;3.30;;
13469;SDS011;6807;48.682;9.032;2023-08-24T08:58:19;4.25;;;3.63;;
13469;SDS011;6807;48.682;9.032;2023-08-24T09:00:47;4.43;;;3.53;;
13469;SDS011;6807;48.682;9.032;2023-08-24T09:03:14;5.85;;;3.50;;
13469;SDS011;6807;48.682;9.032;2023-08-24T09:05:44;5.32;;;3.38;;
13469;SDS011;6807;48.682;9.032;2023-08-24T09:08:13;7.97;;;3.83;;
13469;SDS011;6807;48.682;9.032;2023-08-24T09:10:43;6.65;;;3.63;;
13469;SDS011;6807;48.682;9.032;2023-08-24T09:13:10;5.53;;;3.25;;
13469;SDS011;6807;48.682;9.032;2023-08-24T09:15:37;5.32;;;3.65;;
13469;SDS011;6807;48.682;9.032;2023-08-24T09:18:04;4.53;;;3.63;;
13469;SDS011;6807;48.682;9.032;2023-08-24T09:20:31;7.18;;;3.40;;
13469;SDS011;6807;48.682;9.032;2023-08-24T09:23:00;7.20;;;3.97;;
13469;SDS011;6807;48.682;9.032;2023-08-24T09:25:27;6.38;;;3.30;;
13469;SDS011;6807;48.682;9.032;2023-08-24T09:27:58;3.78;;;3.45;;
13469;SDS011;6807;48.682;9.032;2023-08-24T09:30:29;5.97;;;3.75;;
13469;SDS011;6807;48.682;9.032;2023-08-24T09:33:00;7.70;;;3.40;;
13469;SDS011;6807;48.682;9.032;2023-08-24T09:35:28;5.28;;;3.97;;
13469;SDS011;6807;48.682;9.032;2023-08-24T09:38:03;4.45;;;3.50;;
13469;SDS011;6807;48.682;9.032;2023-08-24T09:40:44;8.32;;;4.10;;
13469;SDS011;6807;48.682;9.032;2023-08-24T09:43:14;4.50;;;3.67;;
13469;SDS011;6807;48.682;9.032;2023-08-24T09:45:47;5.82;;;4.15;;
13469;SDS011;6807;48.682;9.032;2023-08-24T09:48:15;8.63;;;4.00;;
13469;SDS011;6807;48.682;9.032;2023-08-24T09:50:42;6.50;;;3.88;;
13469;SDS011;6807;48.682;9.032;2023-08-24T09:53:11;4.40;;;4.00;;
13469;SDS011;6807;48.682;9.032;2023-08-24T09:55:44;5.13;;;3.80;;
13469;SDS011;6807;48.682;9.032;2023-08-24T09:58:21;4.78;;;3.70;;
13469;SDS011;6807;48.682;9.032;2023-08-24T10:00:48;5.75;;;3.78;;
13469;SDS011;6807;48.682;9.032;2023-08-24T10:03:17;6.40;;;3.75;;
13469;SDS011;6807;48.682;9.032;2023-08-24T10:05:47;4.85;;;3.65;;
13469;SDS011;6807;48.682;9.032;2023-08-24T10:08:17;4.60;;;4.20;;
13469;SDS011;6807;48.682;9.032;2023-08-24T10:10:47;6.28;;;4.03;;
13469;SDS011;6807;48.682;9.032;2023-08-24T10:13:20;5.57;;;4.30;;
13469;SDS011;6807;48.682;9.032;2023-08-24T10:15:55;5.60;;;4.10;;
13469;SDS011;6807;48.682;9.032;2023-08-24T10:18:23;6.60;;;4.20;;
13469;SDS011;6807;48.682;9.032;2023-08-24T10:20:52;9.45;;;4.80;;
13469;SDS011;6807;48.682;9.032;2023-08-24T10:23:19;6.47;;;3.80;;
13469;SDS011;6807;48.682;9.032;2023-08-24T10:25:47;5.43;;;3.92;;
13469;SDS011;6807;48.682;9.032;2023-08-24T10:28:16;4.43;;;3.97;;
13469;SDS011;6807;48.682;9.032;2023-08-24T10:30:47;8.82;;;4.20;;
13469;SDS011;6807;48.682;9.032;2023-08-24T10:33:15;6.05;;;4.32;;
13469;SDS011;6807;48.682;9.032;2023-08-24T10:35:44;5.20;;;4.05;;
13469;SDS011;6807;48.682;9.032;2023-08-24T10:38:22;6.32;;;4.40;;
13469;SDS011;6807;48.682;9.032;2023-08-24T10:40:50;5.72;;;4.25;;
13469;SDS011;6807;48.682;9.032;2023-08-24T10:43:18;6.03;;;4.50;;
13469;SDS011;6807;48.682;9.032;2023-08-24T10:45:56;6.43;;;3.88;;
13469;SDS011;6807;48.682;9.032;2023-08-24T10:48:23;9.18;;;4.47;;
13469;SDS011;6807;48.682;9.032;2023-08-24T10:53:45;5.88;;;3.95;;
13469;SDS011;6807;48.682;9.032;2023-08-24T10:56:13;8.23;;;4.55;;
13469;SDS011;6807;48.682;9.032;2023-08-24T10:58:42;6.68;;;4.40;;
13469;SDS011;6807;48.682;9.032;2023-08-24T11:01:20;7.95;;;4.05;;
13469;SDS011;6807;48.682;9.032;2023-08-24T11:03:48;6.82;;;4.35;;
13469;SDS011;6807;48.682;9.032;2023-08-24T11:06:17;6.18;;;4.15;;
13469;SDS011;6807;48.682;9.032;2023-08-24T11:08:45;6.75;;;4.13;;
13469;SDS011;6807;48.682;9.032;2023-08-24T11:11:19;8.13;;;4.60;;
13469;SDS011;6807;48.682;9.032;2023-08-24T11:16:44;6.78;;;4.00;;
13469;SDS011;6807;48.682;9.032;2023-08-24T11:19:12;6.70;;;4.45;;
13469;SDS011;6807;48.682;9.032;2023-08-24T11:21:41;6.68;;;4.65;;
13469;SDS011;6807;48.682;9.032;2023-08-24T11:24:09;6.78;;;4.38;;
13469;SDS011;6807;48.682;9.032;2023-08-24T11:26:41;5.00;;;4.00;;
13469;SDS011;6807;48.682;9.032;2023-08-24T11:29:09;8.30;;;4.20;;
13469;SDS011;6807;48.682;9.032;2023-08-24T11:31:36;5.97;;;4.47;;
13469;SDS011;6807;48.682;9.032;2023-08-24T11:34:05;6.97;;;4.20;;
13469;SDS011;6807;48.682;9.032;2023-08-24T11:36:40;5.82;;;4.22;;
13469;SDS011;6807;48.682;9.032;2023-08-24T11:39:14;8.32;;;4.40;;
13469;SDS011;6807;48.682;9.032;2023-08-24T11:41:43;5.03;;;4.22;;
13469;SDS011;6807;48.682;9.032;2023-08-24T11:44:10;7.13;;;4.53;;
13469;SDS011;6807;48.682;9.032;2023-08-24T11:46:38;7.85;;;4.50;;
13469;SDS011;6807;48.682;9.032;2023-08-24T11:49:06;6.50;;;4.20;;
13469;SDS011;6807;48.682;9.032;2023-08-24T11:51:34;5.82;;;3.90;;
13469;SDS011;6807;48.682;9.032;2023-08-24T11:54:03;8.82;;;4.75;;
13469;SDS011;6807;48.682;9.032;2023-08-24T11:56:30;6.88;;;4.55;;
13469;SDS011;6807;48.682;9.032;2023-08-24T11:58:57;9.98;;;4.95;;
13469;SDS011;6807;48.682;9.032;2023-08-24T12:01:25;9.25;;;4.53;;
13469;SDS011;6807;48.682;9.032;2023-08-24T12:03:52;7.82;;;4.68;;
13469;SDS011;6807;48.682;9.032;2023-08-24T12:06:21;6.13;;;4.72;;
13469;SDS011;6807;48.682;9.032;2023-08-24T12:08:48;7.97;;;4.65;;
13469;SDS011;6807;48.682;9.032;2023-08-24T12:11:16;5.05;;;4.50;;
13469;SDS011;6807;48.682;9.032;2023-08-24T12:13:44;7.40;;;4.10;;
13469;SDS011;6807;48.682;9.032;2023-08-24T12:16:12;9.60;;;4.38;;
13469;SDS011;6807;48.682;9.032;2023-08-24T12:18:47;5.65;;;4.30;;
13469;SDS011;6807;48.682;9.032;2023-08-24T12:21:16;9.88;;;4.68;;
13469;SDS011;6807;48.682;9.032;2023-08-24T12:23:46;8.45;;;4.60;;
13469;SDS011;6807;48.682;9.032;2023-08-24T12:26:21;6.60;;;4.53;;
13469;SDS011;6807;48.682;9.032;2023-08-24T12:28:51;8.10;;;4.30;;
13469;SDS011;6807;48.682;9.032;2023-08-24T12:31:18;9.82;;;4.63;;
13469;SDS011;6807;48.682;9.032;2023-08-24T12:33:45;7.85;;;4.60;;
13469;SDS011;6807;48.682;9.032;2023-08-24T12:36:25;4.53;;;4.13;;
13469;SDS011;6807;48.682;9.032;2023-08-24T12:38:53;11.77;;;4.63;;
13469;SDS011;6807;48.682;9.032;2023-08-24T12:41:20;8.93;;;4.90;;
13469;SDS011;6807;48.682;9.032;2023-08-24T12:43:48;8.57;;;4.93;;
13469;SDS011;6807;48.682;9.032;2023-08-24T12:46:16;8.00;;;4.88;;
13469;SDS011;6807;48.682;9.032;2023-08-24T12:48:43;6.57;;;4.43;;
13469;SDS011;6807;48.682;9.032;2023-08-24T12:51:10;8.07;;;4.85;;
13469;SDS011;6807;48.682;9.032;2023-08-24T12:53:37;9.13;;;4.60;;
13469;SDS011;6807;48.682;9.032;2023-08-24T12:56:05;7.13;;;3.97;;
13469;SDS011;6807;48.682;9.032;2023-08-24T12:58:32;10.55;;;5.30;;
13469;SDS011;6807;48.682;9.032;2023-08-24T13:00:59;7.30;;;4.85;;
13469;SDS011;6807;48.682;9.032;2023-08-24T13:03:26;7.60;;;4.53;;
13469;SDS011;6807;48.682;9.032;2023-08-24T13:05:53;9.68;;;4.78;;
13469;SDS011;6807;48.682;9.032;2023-08-24T13:08:20;12.35;;;4.05;;
13469;SDS011;6807;48.682;9.032;2023-08-24T13:10:47;9.88;;;4.75;;
13469;SDS011;6807;48.682;9.032;2023-08-24T13:13:16;6.10;;;4.15;;
13469;SDS011;6807;48.682;9.032;2023-08-24T13:15:43;7.55;;;4.40;;
13469;SDS011;6807;48.682;9.032;2023-08-24T13:18:09;7.15;;;4.45;;
13469;SDS011;6807;48.682;9.032;2023-08-24T13:20:36;9.27;;;4.57;;
13469;SDS011;6807;48.682;9.032;2023-08-24T13:23:03;7.65;;;4.13;;
13469;SDS011;6807;48.682;9.032;2023-08-24T13:25:30;8.80;;;4.85;;
13469;SDS011;6807;48.682;9.032;2023-08-24T13:27:57;10.55;;;4.47;;
13469;SDS011;6807;48.682;9.032;2023-08-24T13:30:25;11.00;;;4.38;;
13469;SDS011;6807;48.682;9.032;2023-08-24T13:32:53;9.02;;;4.53;;
13469;SDS011;6807;48.682;9.032;2023-08-24T13:35:20;10.10;;;4.20;;
13469;SDS011;6807;48.682;9.032;2023-08-24T13:37:47;8.63;;;4.53;;
13469;SDS011;6807;48.682;9.032;2023-08-24T13:40:16;9.10;;;3.92;;
13469;SDS011;6807;48.682;9.032;2023-08-24T13:42:44;8.77;;;4.60;;
13469;SDS011;6807;48.682;9.032;2023-08-24T13:45:11;10.65;;;4.72;;
13469;SDS011;6807;48.682;9.032;2023-08-24T13:47:39;10.50;;;4.30;;
13469;SDS011;6807;48.682;9.032;2023-08-24T13:50:06;8.00;;;4.03;;
13469;SDS011;6807;48.682;9.032;2023-08-24T13:52:33;9.55;;;4.43;;
13469;SDS011;6807;48.682;9.032;2023-08-24T13:55:00;11.90;;;4.53;;
13469;SDS011;6807;48.682;9.032;2023-08-24T13:57:28;7.22;;;4.15;;
13469;SDS011;6807;48.682;9.032;2023-08-24T13:59:56;7.10;;;4.65;;
13469;SDS011;6807;48.682;9.032;2023-08-24T14:02:22;5.80;;;3.95;;
13469;SDS011;6807;48.682;9.032;2023-08-24T14:04:51;7.97;;;4.13;;
13469;SDS011;6807;48.682;9.032;2023-08-24T14:07:18;8.27;;;4.15;;
13469;SDS011;6807;48.682;9.032;2023-08-24T14:09:46;9.68;;;4.40;;
13469;SDS011;6807;48.682;9.032;2023-08-24T14:12:12;12.82;;;4.45;;
13469;SDS011;6807;48.682;9.032;2023-08-24T14:14:39;8.02;;;4.50;;
13469;SDS011;6807;48.682;9.032;2023-08-24T14:17:06;9.00;;;4.82;;
13469;SDS011;6807;48.682;9.032;2023-08-24T14:19:33;10.55;;;4.50;;
13469;SDS011;6807;48.682;9.032;2023-08-24T14:22:01;10.18;;;4.70;;
13469;SDS011;6807;48.682;9.032;2023-08-24T14:24:28;9.80;;;4.82;;
13469;SDS011;6807;48.682;9.032;2023-08-24T14:26:55;11.18;;;4.57;;
13469;SDS011;6807;48.682;9.032;2023-08-24T14:29:22;8.48;;;5.13;;
13469;SDS011;6807;48.682;9.032;2023-08-24T14:31:49;6.47;;;4.35;;
13469;SDS011;6807;48.682;9.032;2023-08-24T14:34:16;7.68;;;4.35;;
13469;SDS011;6807;48.682;9.032;2023-08-24T14:36:43;7.97;;;3.80;;
13469;SDS011;6807;48.682;9.032;2023-08-24T14:39:11;9.50;;;4.55;;
13469;SDS011;6807;48.682;9.032;2023-08-24T14:41:38;12.88;;;4.82;;
13469;SDS011;6807;48.682;9.032;2023-08-24T14:44:05;6.78;;;4.43;;
13469;SDS011;6807;48.682;9.032;2023-08-24T14:46:33;9.30;;;4.38;;
13469;SDS011;6807;48.682;9.032;2023-08-24T14:49:00;5.93;;;4.05;;
13469;SDS011;6807;48.682;9.032;2023-08-24T14:51:27;5.78;;;4.13;;
13469;SDS011;6807;48.682;9.032;2023-08-24T14:53:53;7.40;;;4.63;;
13469;SDS011;6807;48.682;9.032;2023-08-24T14:56:22;8.55;;;4.60;;
13469;SDS011;6807;48.682;9.032;2023-08-24T14:58:49;10.43;;;4.60;;
13469;SDS011;6807;48.682;9.032;2023-08-24T15:01:16;13.05;;;5.72;;
13469;SDS011;6807;48.682;9.032;2023-08-24T15:03:43;7.53;;;5.32;;
13469;SDS011;6807;48.682;9.032;2023-08-24T15:06:11;9.57;;;5.07;;
13469;SDS011;6807;48.682;9.032;2023-08-24T15:08:37;11.18;;;5.82;;
13469;SDS011;6807;48.682;9.032;2023-08-24T15:11:06;8.63;;;5.85;;